Аэропорт: Нижневартовск. Нижневартовск

ICAO: USNN

METAR:
2021-04-21 20:00:00
USNN 212000Z 00000MPS CAVOK M09/M11 Q1038 R03/0///65 NOSIG RMK QFE775
METAR:
2021-04-21 16:48:00
TAF USNN 211648Z 2118/2218 24003MPS 9999 SCT040 TEMPO 2118/2202 VRB01MPS 0800 FZFG VV002 BECMG 2204/2205 20003G08MPS